Time;durP1;ratioP1;P1;durP2;ratioP2;P2;SDS_P1;SDS_P2;PMS_P1;PMS_P2;Temp;Humidity;BMP_temperature;BMP_pressure;BME280_temperature;BME280_humidity;BME280_pressure;Samples;Min_cycle;Max_cycle;Signal;HPM_P1;HPM_P2
2022/02/25 00:00:00;;;;;;;5.37;2.90;;;;;;;;;;521845;28;808;-75
2022/02/25 00:00:15;;;;;;;4.87;2.93;;;;;;;;;;522425;28;1480;-75
2022/02/25 00:00:31;;;;;;;4.47;3.00;;;;;;;;;;522577;28;899;-75
2022/02/25 00:00:46;;;;;;;5.70;3.00;;;;;;;;;;526082;28;862;-75
2022/02/25 00:01:02;;;;;;;5.80;2.90;;;;;;;;;;528491;28;734;-76
2022/02/25 00:01:17;;;;;;;4.43;2.70;;;;;;;;;;528475;28;748;-76
2022/02/25 00:01:32;;;;;;;3.87;2.70;;;;;;;;;;528551;28;875;-75
2022/02/25 00:01:48;;;;;;;4.90;2.70;;;;;;;;;;528392;28;827;-76
2022/02/25 00:02:03;;;;;;;5.93;2.70;;;;;;;;;;528044;28;1163;-76
2022/02/25 00:02:18;;;;;;;6.65;2.95;;;;;;;;;;526524;28;768;-76
2022/02/25 00:02:34;;;;;;;6.43;3.00;;;;;;;;;;523903;28;1273;-76
2022/02/25 00:02:49;;;;;;;6.22;2.97;;;;;;;;;;523626;28;799;-75
2022/02/25 00:03:06;;;;;;;5.90;3.00;;;;;;;;;;524181;28;772;-76
2022/02/25 00:03:21;;;;;;;5.68;3.10;;;;;;;;;;524116;28;757;-76
2022/02/25 00:03:37;;;;;;;6.03;3.00;;;;;;;;;;524313;28;891;-76
2022/02/25 00:03:52;;;;;;;6.35;3.28;;;;;;;;;;522350;28;882;-76
2022/02/25 00:04:07;;;;;;;5.63;3.30;;;;;;;;;;523685;28;860;-76
2022/02/25 00:04:23;;;;;;;4.83;3.13;;;;;;;;;;524141;28;1163;-76
2022/02/25 00:04:38;;;;;;;4.60;3.10;;;;;;;;;;523930;28;1254;-75
2022/02/25 00:04:54;;;;;;;4.70;2.90;;;;;;;;;;523632;28;927;-75
2022/02/25 00:05:09;;;;;;;5.18;2.83;;;;;;;;;;524340;28;1550;-76
2022/02/25 00:05:25;;;;;;;4.67;2.80;;;;;;;;;;525555;28;720;-75
2022/02/25 00:05:41;;;;;;;4.97;2.88;;;;;;;;;;522674;28;772;-75
2022/02/25 00:05:57;;;;;;;4.97;2.90;;;;;;;;;;522052;28;1895;-75
2022/02/25 00:06:12;;;;;;;5.73;3.10;;;;;;;;;;523212;28;982;-76
2022/02/25 00:06:27;;;;;;;5.93;3.20;;;;;;;;;;524259;28;1174;-76
2022/02/25 00:06:42;;;;;;;5.87;3.17;;;;;;;;;;526142;28;1135;-76
2022/02/25 00:06:58;;;;;;;6.13;3.22;;;;;;;;;;525816;28;1212;-75
2022/02/25 00:07:13;;;;;;;6.20;3.27;;;;;;;;;;523252;28;1411;-76
2022/02/25 00:07:28;;;;;;;6.93;3.40;;;;;;;;;;522590;28;796;-75
2022/02/25 00:07:44;;;;;;;6.43;3.20;;;;;;;;;;524285;28;855;-75
2022/02/25 00:08:00;;;;;;;5.37;2.80;;;;;;;;;;524142;28;923;-74
2022/02/25 00:08:15;;;;;;;5.15;2.92;;;;;;;;;;524029;28;977;-74
2022/02/25 00:08:33;;;;;;;4.93;2.90;;;;;;;;;;524100;28;949;-74
2022/02/25 00:08:48;;;;;;;5.50;2.80;;;;;;;;;;524027;28;1241;-74
2022/02/25 00:09:07;;;;;;;6.27;2.97;;;;;;;;;;526361;28;914;-75
2022/02/25 00:09:22;;;;;;;7.10;3.22;;;;;;;;;;526196;28;1296;-75
2022/02/25 00:09:38;;;;;;;7.50;3.30;;;;;;;;;;526386;28;843;-74
2022/02/25 00:09:53;;;;;;;6.00;3.17;;;;;;;;;;526310;28;783;-74
2022/02/25 00:10:10;;;;;;;5.13;3.07;;;;;;;;;;525133;28;1770;-74
2022/02/25 00:10:25;;;;;;;4.88;3.10;;;;;;;;;;522683;28;1427;-74
2022/02/25 00:10:41;;;;;;;3.85;3.28;;;;;;;;;;524039;28;1164;-75
2022/02/25 00:10:56;;;;;;;4.80;3.50;;;;;;;;;;524104;28;776;-75
2022/02/25 00:11:11;;;;;;;5.45;3.40;;;;;;;;;;524489;28;1199;-74
2022/02/25 00:11:27;;;;;;;5.53;3.57;;;;;;;;;;523869;28;1392;-74
2022/02/25 00:11:42;;;;;;;5.40;3.50;;;;;;;;;;523329;28;1456;-75
2022/02/25 00:11:57;;;;;;;5.78;3.25;;;;;;;;;;520489;28;1418;-74
2022/02/25 00:12:13;;;;;;;5.80;3.77;;;;;;;;;;521895;28;1485;-75
2022/02/25 00:12:28;;;;;;;6.40;4.50;;;;;;;;;;522143;28;816;-74
2022/02/25 00:12:43;;;;;;;6.43;4.80;;;;;;;;;;524026;28;807;-74
2022/02/25 00:12:58;;;;;;;7.40;4.90;;;;;;;;;;522244;28;1295;-74
2022/02/25 00:13:14;;;;;;;8.17;4.60;;;;;;;;;;523785;28;969;-74
2022/02/25 00:13:29;;;;;;;7.50;3.95;;;;;;;;;;523900;28;1235;-74
2022/02/25 00:13:44;;;;;;;7.20;3.70;;;;;;;;;;524057;28;1288;-74
2022/02/25 00:14:00;;;;;;;7.20;4.10;;;;;;;;;;526018;28;962;-74
2022/02/25 00:14:15;;;;;;;7.28;4.07;;;;;;;;;;525241;28;1337;-75
2022/02/25 00:14:30;;;;;;;5.57;3.43;;;;;;;;;;526132;28;763;-75
2022/02/25 00:14:46;;;;;;;5.33;3.20;;;;;;;;;;526082;28;870;-75
2022/02/25 00:15:01;;;;;;;5.53;3.10;;;;;;;;;;527392;28;1581;-75
2022/02/25 00:15:16;;;;;;;5.67;3.03;;;;;;;;;;524845;28;1127;-74
2022/02/25 00:15:32;;;;;;;7.43;3.30;;;;;;;;;;524317;28;867;-75
2022/02/25 00:15:47;;;;;;;7.53;3.50;;;;;;;;;;524629;28;1273;-74
2022/02/25 00:16:02;;;;;;;7.37;3.67;;;;;;;;;;524273;28;760;-74
2022/02/25 00:16:18;;;;;;;7.50;3.80;;;;;;;;;;526018;28;1229;-75
2022/02/25 00:16:33;;;;;;;6.82;3.97;;;;;;;;;;526187;28;823;-75
2022/02/25 00:16:49;;;;;;;6.17;3.67;;;;;;;;;;524195;28;1301;-75
2022/02/25 00:17:04;;;;;;;5.22;3.20;;;;;;;;;;524208;28;819;-74
2022/02/25 00:17:19;;;;;;;6.23;3.17;;;;;;;;;;521568;28;1234;-75
2022/02/25 00:17:35;;;;;;;6.47;3.20;;;;;;;;;;522335;28;871;-74
2022/02/25 00:17:50;;;;;;;5.70;3.20;;;;;;;;;;524229;28;831;-75
2022/02/25 00:18:05;;;;;;;6.20;3.10;;;;;;;;;;524208;28;865;-75
2022/02/25 00:18:20;;;;;;;6.07;3.13;;;;;;;;;;526176;28;875;-75
2022/02/25 00:18:36;;;;;;;5.57;3.00;;;;;;;;;;526528;28;693;-75
2022/02/25 00:18:51;;;;;;;5.87;2.87;;;;;;;;;;528356;28;1121;-75
2022/02/25 00:19:07;;;;;;;5.00;2.80;;;;;;;;;;527833;28;985;-74
2022/02/25 00:19:22;;;;;;;4.82;2.70;;;;;;;;;;526106;28;701;-75
2022/02/25 00:19:37;;;;;;;5.77;2.80;;;;;;;;;;526247;28;827;-74
2022/02/25 00:19:53;;;;;;;6.03;2.80;;;;;;;;;;528307;28;1288;-74
2022/02/25 00:20:10;;;;;;;5.70;2.73;;;;;;;;;;524931;28;1495;-75
2022/02/25 00:20:26;;;;;;;6.70;2.83;;;;;;;;;;525586;28;811;-74
2022/02/25 00:20:41;;;;;;;6.60;2.72;;;;;;;;;;524861;28;799;-74
2022/02/25 00:20:57;;;;;;;6.70;3.00;;;;;;;;;;522076;28;1206;-74
2022/02/25 00:21:12;;;;;;;7.00;3.37;;;;;;;;;;521975;28;962;-74
2022/02/25 00:21:28;;;;;;;7.45;4.30;;;;;;;;;;521622;28;946;-74
2022/02/25 00:21:44;;;;;;;9.40;5.80;;;;;;;;;;522511;28;733;-74
2022/02/25 00:21:59;;;;;;;10.13;6.82;;;;;;;;;;524753;28;973;-74
2022/02/25 00:22:14;;;;;;;9.73;6.43;;;;;;;;;;526033;28;1270;-75
2022/02/25 00:22:29;;;;;;;8.70;4.75;;;;;;;;;;526098;28;974;-74
2022/02/25 00:22:45;;;;;;;8.17;3.80;;;;;;;;;;524211;28;1330;-74
2022/02/25 00:23:01;;;;;;;7.43;3.85;;;;;;;;;;526093;28;836;-74
2022/02/25 00:23:17;;;;;;;7.00;3.90;;;;;;;;;;523630;28;1249;-75
2022/02/25 00:23:32;;;;;;;6.73;3.70;;;;;;;;;;523989;28;898;-74
2022/02/25 00:23:47;;;;;;;6.35;3.35;;;;;;;;;;524037;28;1017;-75
2022/02/25 00:24:03;;;;;;;5.93;3.10;;;;;;;;;;522303;28;796;-75
2022/02/25 00:24:18;;;;;;;5.88;2.95;;;;;;;;;;523645;28;1180;-75
2022/02/25 00:24:33;;;;;;;6.57;2.80;;;;;;;;;;524617;28;930;-75
2022/02/25 00:24:49;;;;;;;6.47;2.83;;;;;;;;;;526315;28;641;-75
2022/02/25 00:25:07;;;;;;;5.38;2.85;;;;;;;;;;525463;28;1509;-75
2022/02/25 00:25:22;;;;;;;5.07;2.95;;;;;;;;;;528296;28;1313;-74
2022/02/25 00:25:41;;;;;;;5.57;2.80;;;;;;;;;;525617;28;1166;-74
2022/02/25 00:25:56;;;;;;;5.75;2.72;;;;;;;;;;525004;28;1922;-74
2022/02/25 00:26:11;;;;;;;5.93;2.87;;;;;;;;;;526134;28;891;-74
2022/02/25 00:26:27;;;;;;;6.90;2.97;;;;;;;;;;525986;28;986;-74
2022/02/25 00:26:42;;;;;;;6.57;2.92;;;;;;;;;;526190;28;883;-74
2022/02/25 00:26:57;;;;;;;4.83;2.73;;;;;;;;;;525751;28;1397;-74
2022/02/25 00:27:13;;;;;;;5.27;2.70;;;;;;;;;;523956;28;1416;-74
2022/02/25 00:27:28;;;;;;;5.47;2.80;;;;;;;;;;525321;28;1334;-74
2022/02/25 00:27:44;;;;;;;5.77;2.87;;;;;;;;;;528010;28;788;-74
2022/02/25 00:27:59;;;;;;;5.45;2.75;;;;;;;;;;528413;28;961;-74
2022/02/25 00:28:15;;;;;;;5.03;2.70;;;;;;;;;;526060;28;1358;-74
2022/02/25 00:28:30;;;;;;;5.13;2.70;;;;;;;;;;526262;28;1295;-75
2022/02/25 00:28:46;;;;;;;5.23;2.53;;;;;;;;;;526262;28;803;-74
2022/02/25 00:29:03;;;;;;;5.53;2.57;;;;;;;;;;526132;28;1342;-75
2022/02/25 00:29:18;;;;;;;4.85;2.45;;;;;;;;;;526446;28;744;-75
2022/02/25 00:29:34;;;;;;;4.77;2.50;;;;;;;;;;528466;28;795;-75
2022/02/25 00:29:49;;;;;;;4.47;2.60;;;;;;;;;;527956;28;752;-74
2022/02/25 00:30:05;;;;;;;5.80;2.70;;;;;;;;;;527794;27;1648;-75
2022/02/25 00:30:20;;;;;;;6.90;3.00;;;;;;;;;;528879;27;708;-75
2022/02/25 00:30:36;;;;;;;5.40;2.90;;;;;;;;;;526738;28;1282;-75
2022/02/25 00:30:51;;;;;;;6.60;2.70;;;;;;;;;;528193;28;809;-75
2022/02/25 00:31:06;;;;;;;7.37;2.60;;;;;;;;;;525802;28;1158;-75
2022/02/25 00:31:22;;;;;;;5.35;2.50;;;;;;;;;;523735;28;1194;-75
2022/02/25 00:31:37;;;;;;;5.30;2.53;;;;;;;;;;523961;28;1489;-75
2022/02/25 00:31:52;;;;;;;6.00;2.53;;;;;;;;;;521711;28;1395;-75
2022/02/25 00:32:08;;;;;;;5.90;2.75;;;;;;;;;;521841;28;1284;-74
2022/02/25 00:32:23;;;;;;;6.57;2.90;;;;;;;;;;524372;28;815;-74
2022/02/25 00:32:39;;;;;;;6.20;2.90;;;;;;;;;;526394;28;714;-74
2022/02/25 00:32:54;;;;;;;5.03;2.63;;;;;;;;;;526078;28;756;-74
2022/02/25 00:33:11;;;;;;;5.37;2.60;;;;;;;;;;523821;28;1264;-74
2022/02/25 00:33:27;;;;;;;5.90;2.72;;;;;;;;;;524194;28;839;-74
2022/02/25 00:33:42;;;;;;;6.40;2.80;;;;;;;;;;526228;28;932;-74
2022/02/25 00:33:58;;;;;;;6.78;2.75;;;;;;;;;;524010;28;1197;-74
2022/02/25 00:34:13;;;;;;;5.60;2.60;;;;;;;;;;525643;28;913;-74
2022/02/25 00:34:28;;;;;;;4.85;2.58;;;;;;;;;;526116;28;923;-74
2022/02/25 00:34:44;;;;;;;4.80;2.40;;;;;;;;;;524022;28;1320;-74
2022/02/25 00:34:59;;;;;;;5.70;2.60;;;;;;;;;;524453;28;843;-74
2022/02/25 00:35:14;;;;;;;7.13;2.72;;;;;;;;;;525594;28;1578;-74
2022/02/25 00:35:30;;;;;;;6.93;2.70;;;;;;;;;;526072;28;820;-74
2022/02/25 00:35:45;;;;;;;5.63;2.77;;;;;;;;;;526026;28;843;-74
2022/02/25 00:36:00;;;;;;;5.85;2.67;;;;;;;;;;525929;28;1309;-74
2022/02/25 00:36:16;;;;;;;6.13;2.73;;;;;;;;;;525951;28;1254;-74
2022/02/25 00:36:31;;;;;;;5.27;2.90;;;;;;;;;;526324;28;1279;-74
2022/02/25 00:36:46;;;;;;;5.65;2.80;;;;;;;;;;528413;28;752;-75
2022/02/25 00:37:02;;;;;;;6.80;2.80;;;;;;;;;;528429;28;807;-75
2022/02/25 00:37:17;;;;;;;6.07;2.80;;;;;;;;;;526931;28;1090;-75
2022/02/25 00:37:32;;;;;;;5.47;2.80;;;;;;;;;;524110;28;946;-74
2022/02/25 00:37:49;;;;;;;6.07;3.00;;;;;;;;;;524252;28;938;-75
2022/02/25 00:38:04;;;;;;;5.68;3.22;;;;;;;;;;524344;28;820;-74
2022/02/25 00:38:20;;;;;;;6.10;3.50;;;;;;;;;;526339;28;832;-74
2022/02/25 00:38:35;;;;;;;6.78;3.90;;;;;;;;;;528311;28;736;-74
2022/02/25 00:38:51;;;;;;;7.73;4.40;;;;;;;;;;528282;28;768;-75
2022/02/25 00:39:06;;;;;;;7.75;4.38;;;;;;;;;;528009;28;855;-76
2022/02/25 00:39:21;;;;;;;8.10;4.20;;;;;;;;;;526287;28;1247;-74
2022/02/25 00:39:37;;;;;;;8.10;3.90;;;;;;;;;;528310;28;851;-74
2022/02/25 00:39:52;;;;;;;7.30;3.63;;;;;;;;;;526115;28;1199;-75
2022/02/25 00:40:09;;;;;;;6.63;3.47;;;;;;;;;;524709;28;1599;-74
2022/02/25 00:40:25;;;;;;;6.60;3.20;;;;;;;;;;525040;28;955;-74
2022/02/25 00:40:40;;;;;;;8.30;3.43;;;;;;;;;;525004;28;1009;-74
2022/02/25 00:40:55;;;;;;;7.63;3.60;;;;;;;;;;524090;28;689;-74
2022/02/25 00:41:10;;;;;;;7.10;3.65;;;;;;;;;;525400;28;955;-73
2022/02/25 00:41:26;;;;;;;7.07;3.60;;;;;;;;;;525863;28;1287;-73
2022/02/25 00:41:41;;;;;;;6.90;3.60;;;;;;;;;;526007;28;783;-75
2022/02/25 00:41:56;;;;;;;6.60;3.43;;;;;;;;;;526668;28;729;-75
2022/02/25 00:42:13;;;;;;;5.55;3.00;;;;;;;;;;527475;28;736;-74
2022/02/25 00:42:28;;;;;;;5.80;3.03;;;;;;;;;;523685;28;1504;-74
2022/02/25 00:42:43;;;;;;;6.80;3.97;;;;;;;;;;524026;28;807;-74
2022/02/25 00:42:59;;;;;;;6.50;4.50;;;;;;;;;;523744;28;757;-74
2022/02/25 00:43:14;;;;;;;7.60;4.40;;;;;;;;;;524215;28;725;-74
2022/02/25 00:43:29;;;;;;;8.02;4.50;;;;;;;;;;527361;27;752;-74
2022/02/25 00:43:45;;;;;;;7.80;4.20;;;;;;;;;;530308;27;931;-74
2022/02/25 00:44:00;;;;;;;8.13;4.17;;;;;;;;;;530306;27;847;-73
2022/02/25 00:44:15;;;;;;;7.22;4.03;;;;;;;;;;529809;27;791;-74
2022/02/25 00:44:31;;;;;;;6.77;3.80;;;;;;;;;;529844;27;1103;-74
2022/02/25 00:44:47;;;;;;;6.63;3.70;;;;;;;;;;529651;27;1247;-75
2022/02/25 00:45:03;;;;;;;6.20;3.55;;;;;;;;;;525231;28;1515;-74
2022/02/25 00:45:18;;;;;;;6.63;3.50;;;;;;;;;;525417;28;996;-75
2022/02/25 00:45:33;;;;;;;7.55;3.30;;;;;;;;;;525717;28;712;-75
2022/02/25 00:45:49;;;;;;;6.30;2.93;;;;;;;;;;521291;28;1965;-74
2022/02/25 00:46:04;;;;;;;4.70;2.53;;;;;;;;;;522063;28;801;-75
2022/02/25 00:46:19;;;;;;;5.33;2.70;;;;;;;;;;524364;28;772;-74
2022/02/25 00:46:35;;;;;;;6.00;2.77;;;;;;;;;;523481;28;1214;-75
2022/02/25 00:46:50;;;;;;;4.90;2.37;;;;;;;;;;523903;28;1473;-75
2022/02/25 00:47:06;;;;;;;5.38;2.40;;;;;;;;;;521728;28;1329;-75
2022/02/25 00:47:21;;;;;;;6.50;2.50;;;;;;;;;;521792;28;943;-75
2022/02/25 00:47:37;;;;;;;5.47;2.47;;;;;;;;;;519776;28;1224;-75
2022/02/25 00:47:53;;;;;;;5.43;2.78;;;;;;;;;;519808;28;816;-75
2022/02/25 00:48:08;;;;;;;7.43;2.83;;;;;;;;;;517704;28;1282;-74
2022/02/25 00:48:23;;;;;;;6.57;2.53;;;;;;;;;;518296;28;986;-74
2022/02/25 00:48:38;;;;;;;5.20;2.43;;;;;;;;;;519886;28;1100;-74
2022/02/25 00:48:54;;;;;;;5.90;2.50;;;;;;;;;;524079;28;1411;-75
2022/02/25 00:49:09;;;;;;;6.40;2.50;;;;;;;;;;521443;28;1162;-74
2022/02/25 00:49:24;;;;;;;6.70;2.63;;;;;;;;;;522398;28;1232;-74
2022/02/25 00:49:40;;;;;;;6.60;3.40;;;;;;;;;;525734;28;1310;-74
2022/02/25 00:49:55;;;;;;;8.63;4.10;;;;;;;;;;526136;28;697;-74
2022/02/25 00:50:11;;;;;;;9.23;4.20;;;;;;;;;;524674;28;1488;-74
2022/02/25 00:50:26;;;;;;;7.93;3.90;;;;;;;;;;525168;28;853;-74
2022/02/25 00:50:42;;;;;;;7.43;3.30;;;;;;;;;;524222;28;1210;-74
2022/02/25 00:50:57;;;;;;;7.07;2.67;;;;;;;;;;521838;28;1259;-74
2022/02/25 00:51:12;;;;;;;7.33;2.40;;;;;;;;;;521862;28;859;-73
2022/02/25 00:51:28;;;;;;;6.43;2.42;;;;;;;;;;521923;28;1409;-73
2022/02/25 00:51:43;;;;;;;4.93;2.30;;;;;;;;;;521763;28;1213;-73
2022/02/25 00:51:58;;;;;;;4.67;2.00;;;;;;;;;;521912;28;825;-73
2022/02/25 00:52:14;;;;;;;5.68;2.03;;;;;;;;;;523676;28;840;-74
2022/02/25 00:52:29;;;;;;;5.40;2.20;;;;;;;;;;524109;28;823;-73
2022/02/25 00:52:44;;;;;;;6.30;2.33;;;;;;;;;;525909;28;848;-74
2022/02/25 00:53:00;;;;;;;7.13;2.47;;;;;;;;;;527896;28;1275;-73
2022/02/25 00:53:15;;;;;;;5.67;2.27;;;;;;;;;;526171;28;1295;-74
2022/02/25 00:53:30;;;;;;;5.67;2.17;;;;;;;;;;526288;28;1253;-74
2022/02/25 00:53:46;;;;;;;6.30;2.17;;;;;;;;;;526159;28;1370;-73
2022/02/25 00:54:01;;;;;;;5.33;2.10;;;;;;;;;;524112;28;1183;-75
2022/02/25 00:54:17;;;;;;;5.88;2.10;;;;;;;;;;523486;28;1147;-74
2022/02/25 00:54:32;;;;;;;8.67;2.40;;;;;;;;;;520074;28;1212;-75
2022/02/25 00:54:47;;;;;;;8.25;2.80;;;;;;;;;;519562;28;1376;-74
2022/02/25 00:55:04;;;;;;;6.93;2.73;;;;;;;;;;519104;28;1609;-74
2022/02/25 00:55:19;;;;;;;6.55;2.60;;;;;;;;;;519481;28;733;-75
2022/02/25 00:55:35;;;;;;;5.07;2.30;;;;;;;;;;520400;28;757;-74
2022/02/25 00:55:50;;;;;;;5.13;2.27;;;;;;;;;;521890;28;748;-75
2022/02/25 00:56:05;;;;;;;5.22;2.30;;;;;;;;;;523825;28;1335;-74
2022/02/25 00:56:21;;;;;;;5.83;2.33;;;;;;;;;;524219;28;1251;-75
2022/02/25 00:56:37;;;;;;;5.72;2.15;;;;;;;;;;523615;28;1535;-74
2022/02/25 00:56:52;;;;;;;5.83;2.20;;;;;;;;;;522814;28;1461;-74
2022/02/25 00:57:07;;;;;;;6.13;2.30;;;;;;;;;;522191;28;1417;-74
2022/02/25 00:57:23;;;;;;;6.13;2.37;;;;;;;;;;523137;28;1389;-74
2022/02/25 00:57:45;;;;;;;5.70;2.35;;;;;;;;;;521980;28;1206;-74
2022/02/25 00:58:01;;;;;;;6.38;2.40;;;;;;;;;;521765;28;854;-74
2022/02/25 00:58:16;;;;;;;7.05;2.35;;;;;;;;;;523233;28;761;-74
2022/02/25 00:58:31;;;;;;;6.33;2.30;;;;;;;;;;523991;28;759;-75
2022/02/25 00:58:47;;;;;;;7.07;2.50;;;;;;;;;;523977;28;1287;-75
2022/02/25 00:59:02;;;;;;;7.32;2.45;;;;;;;;;;523328;28;931;-74
2022/02/25 00:59:18;;;;;;;7.00;2.37;;;;;;;;;;523432;28;729;-75
2022/02/25 00:59:33;;;;;;;7.20;2.22;;;;;;;;;;525031;28;915;-75
2022/02/25 00:59:48;;;;;;;6.27;2.20;;;;;;;;;;523909;28;1307;-75
2022/02/25 01:00:04;;;;;;;5.37;2.30;;;;;;;;;;523470;28;1488;-74
2022/02/25 01:00:20;;;;;;;5.85;2.20;;;;;;;;;;524805;28;1485;-75
2022/02/25 01:00:36;;;;;;;5.07;2.13;;;;;;;;;;524744;28;1237;-75
2022/02/25 01:00:51;;;;;;;4.60;2.00;;;;;;;;;;528062;28;725;-74
2022/02/25 01:01:06;;;;;;;5.40;2.13;;;;;;;;;;527242;28;1524;-75
2022/02/25 01:01:22;;;;;;;7.32;2.30;;;;;;;;;;526180;28;744;-74
2022/02/25 01:01:37;;;;;;;7.17;2.37;;;;;;;;;;523966;28;1229;-75
2022/02/25 01:01:52;;;;;;;5.77;2.37;;;;;;;;;;521931;28;1350;-74
2022/02/25 01:02:08;;;;;;;5.20;2.20;;;;;;;;;;521729;28;943;-73
2022/02/25 01:02:23;;;;;;;7.10;2.10;;;;;;;;;;522139;28;788;-74
2022/02/25 01:02:38;;;;;;;7.43;2.00;;;;;;;;;;521886;28;1250;-74
2022/02/25 01:02:54;;;;;;;6.30;2.08;;;;;;;;;;522178;28;938;-74
2022/02/25 01:03:09;;;;;;;6.47;2.13;;;;;;;;;;521498;28;1283;-74
2022/02/25 01:03:24;;;;;;;5.47;2.00;;;;;;;;;;522318;28;935;-74
2022/02/25 01:03:39;;;;;;;5.03;1.85;;;;;;;;;;524041;28;792;-74
2022/02/25 01:03:55;;;;;;;5.53;2.13;;;;;;;;;;526109;28;855;-74
2022/02/25 01:04:10;;;;;;;6.90;2.53;;;;;;;;;;523490;28;1270;-74
2022/02/25 01:04:25;;;;;;;6.40;2.50;;;;;;;;;;523842;28;1244;-74
2022/02/25 01:04:41;;;;;;;5.70;2.40;;;;;;;;;;523979;28;831;-75
2022/02/25 01:04:58;;;;;;;5.80;2.33;;;;;;;;;;524020;28;737;-74
2022/02/25 01:05:14;;;;;;;4.80;2.17;;;;;;;;;;522981;28;1536;-74
2022/02/25 01:05:29;;;;;;;5.43;2.20;;;;;;;;;;524079;28;796;-74
2022/02/25 01:05:44;;;;;;;6.13;2.55;;;;;;;;;;523826;28;788;-74
2022/02/25 01:05:59;;;;;;;5.90;2.57;;;;;;;;;;522275;28;1942;-74
2022/02/25 01:06:15;;;;;;;5.87;2.33;;;;;;;;;;522371;28;1270;-74
2022/02/25 01:06:30;;;;;;;5.10;2.05;;;;;;;;;;522026;28;1273;-74
2022/02/25 01:06:45;;;;;;;4.67;2.00;;;;;;;;;;522039;28;922;-74
2022/02/25 01:07:01;;;;;;;5.60;2.30;;;;;;;;;;522007;28;757;-74
2022/02/25 01:07:16;;;;;;;6.43;2.40;;;;;;;;;;521708;28;874;-76
2022/02/25 01:07:31;;;;;;;6.57;2.20;;;;;;;;;;521884;28;903;-75
2022/02/25 01:07:47;;;;;;;6.00;2.20;;;;;;;;;;522016;28;621;-75
2022/02/25 01:08:07;;;;;;;6.32;2.00;;;;;;;;;;524066;28;879;-75
2022/02/25 01:08:22;;;;;;;6.38;2.13;;;;;;;;;;525950;28;879;-75
2022/02/25 01:08:38;;;;;;;6.87;2.20;;;;;;;;;;526185;28;907;-75
2022/02/25 01:08:53;;;;;;;5.82;2.03;;;;;;;;;;526229;28;653;-74
2022/02/25 01:09:11;;;;;;;5.10;2.00;;;;;;;;;;525716;28;904;-74
2022/02/25 01:09:26;;;;;;;4.85;2.00;;;;;;;;;;525933;28;878;-74
2022/02/25 01:09:41;;;;;;;4.47;2.00;;;;;;;;;;526479;28;807;-74
2022/02/25 01:09:56;;;;;;;5.40;1.90;;;;;;;;;;526207;28;729;-74
2022/02/25 01:10:14;;;;;;;5.20;2.00;;;;;;;;;;525247;28;1570;-74
2022/02/25 01:10:29;;;;;;;6.15;2.17;;;;;;;;;;524457;28;859;-74
2022/02/25 01:10:45;;;;;;;6.15;1.92;;;;;;;;;;526095;28;989;-74
2022/02/25 01:11:00;;;;;;;4.97;1.90;;;;;;;;;;526367;28;789;-74
2022/02/25 01:11:15;;;;;;;5.23;2.00;;;;;;;;;;524669;28;817;-75
2022/02/25 01:11:31;;;;;;;4.90;1.90;;;;;;;;;;523814;28;748;-75
2022/02/25 01:11:46;;;;;;;5.50;1.90;;;;;;;;;;524288;28;724;-74
2022/02/25 01:12:03;;;;;;;6.17;1.90;;;;;;;;;;524142;28;1211;-75
2022/02/25 01:12:18;;;;;;;4.93;1.80;;;;;;;;;;525755;28;835;-75
2022/02/25 01:12:34;;;;;;;4.80;2.00;;;;;;;;;;526479;28;943;-75
2022/02/25 01:12:49;;;;;;;5.50;2.13;;;;;;;;;;525896;28;1009;-75
2022/02/25 01:13:05;;;;;;;5.85;2.03;;;;;;;;;;526017;28;1171;-75
2022/02/25 01:13:20;;;;;;;6.93;2.17;;;;;;;;;;526142;28;914;-75
2022/02/25 01:13:35;;;;;;;7.83;2.23;;;;;;;;;;527101;28;820;-75
2022/02/25 01:13:51;;;;;;;6.97;2.10;;;;;;;;;;527941;28;1209;-75
2022/02/25 01:14:06;;;;;;;5.97;1.90;;;;;;;;;;527815;28;816;-75
2022/02/25 01:14:21;;;;;;;5.13;1.80;;;;;;;;;;527806;28;836;-75
2022/02/25 01:14:37;;;;;;;5.37;1.90;;;;;;;;;;528360;28;753;-75
2022/02/25 01:14:52;;;;;;;6.23;1.93;;;;;;;;;;530134;28;748;-74
2022/02/25 01:15:08;;;;;;;5.97;1.98;;;;;;;;;;525906;28;1542;-74
2022/02/25 01:15:23;;;;;;;5.18;1.90;;;;;;;;;;524865;28;1159;-74
2022/02/25 01:15:39;;;;;;;5.57;1.90;;;;;;;;;;525721;28;903;-74
2022/02/25 01:15:54;;;;;;;5.33;1.90;;;;;;;;;;527833;28;779;-74
2022/02/25 01:16:09;;;;;;;7.00;2.00;;;;;;;;;;527868;28;759;-75
2022/02/25 01:16:24;;;;;;;6.97;2.00;;;;;;;;;;528198;28;772;-74
2022/02/25 01:16:40;;;;;;;5.03;1.90;;;;;;;;;;525926;28;1327;-74
2022/02/25 01:16:55;;;;;;;4.90;1.77;;;;;;;;;;525700;28;803;-74
2022/02/25 01:17:10;;;;;;;4.73;1.77;;;;;;;;;;524043;28;1125;-74
2022/02/25 01:17:29;;;;;;;5.03;1.83;;;;;;;;;;526003;28;962;-74
2022/02/25 01:17:44;;;;;;;5.57;2.08;;;;;;;;;;525585;28;838;-74
2022/02/25 01:18:00;;;;;;;5.37;1.90;;;;;;;;;;525998;28;882;-74
2022/02/25 01:18:15;;;;;;;5.63;1.92;;;;;;;;;;523789;28;1490;-74
2022/02/25 01:18:31;;;;;;;6.03;2.20;;;;;;;;;;524519;28;848;-74
2022/02/25 01:18:46;;;;;;;5.50;2.00;;;;;;;;;;526326;28;851;-75
2022/02/25 01:19:02;;;;;;;5.20;2.00;;;;;;;;;;526178;28;764;-74
2022/02/25 01:19:17;;;;;;;5.63;2.00;;;;;;;;;;525652;28;729;-74
2022/02/25 01:19:32;;;;;;;6.67;2.00;;;;;;;;;;526177;28;804;-75
2022/02/25 01:19:47;;;;;;;6.77;2.00;;;;;;;;;;525757;28;792;-74
2022/02/25 01:20:04;;;;;;;6.68;1.95;;;;;;;;;;524804;28;1487;-74
2022/02/25 01:20:19;;;;;;;6.38;2.00;;;;;;;;;;527364;28;1221;-76
2022/02/25 01:20:35;;;;;;;5.43;2.10;;;;;;;;;;527988;28;812;-74
2022/02/25 01:20:50;;;;;;;4.93;2.00;;;;;;;;;;528271;28;942;-74
2022/02/25 01:21:06;;;;;;;5.63;2.07;;;;;;;;;;525592;28;1186;-74
2022/02/25 01:21:22;;;;;;;6.53;2.05;;;;;;;;;;524054;28;1358;-74
2022/02/25 01:21:37;;;;;;;5.97;1.80;;;;;;;;;;524110;28;768;-74
2022/02/25 01:21:53;;;;;;;6.33;2.00;;;;;;;;;;523886;28;745;-74
2022/02/25 01:22:09;;;;;;;7.20;2.10;;;;;;;;;;523697;28;897;-74
2022/02/25 01:22:25;;;;;;;5.30;1.90;;;;;;;;;;524147;28;1222;-74
2022/02/25 01:22:40;;;;;;;5.22;1.80;;;;;;;;;;521843;28;1215;-74
2022/02/25 01:22:56;;;;;;;5.68;1.80;;;;;;;;;;522710;28;584;-74
2022/02/25 01:23:11;;;;;;;6.47;1.90;;;;;;;;;;524018;28;737;-74
2022/02/25 01:23:26;;;;;;;6.77;2.10;;;;;;;;;;524042;28;923;-74
2022/02/25 01:23:42;;;;;;;5.80;2.10;;;;;;;;;;524023;28;951;-74
2022/02/25 01:23:57;;;;;;;6.23;2.00;;;;;;;;;;523872;28;962;-74
2022/02/25 01:24:12;;;;;;;7.97;1.90;;;;;;;;;;523698;28;756;-74
2022/02/25 01:24:28;;;;;;;8.13;1.90;;;;;;;;;;526088;28;910;-73
2022/02/25 01:24:43;;;;;;;6.53;1.93;;;;;;;;;;526368;28;855;-74
2022/02/25 01:24:59;;;;;;;6.00;1.90;;;;;;;;;;525831;28;1154;-74
2022/02/25 01:25:15;;;;;;;5.45;1.73;;;;;;;;;;524220;28;1553;-74
2022/02/25 01:25:30;;;;;;;5.25;1.67;;;;;;;;;;526179;28;834;-74
2022/02/25 01:25:46;;;;;;;5.28;1.70;;;;;;;;;;523967;28;926;-75
2022/02/25 01:26:01;;;;;;;5.23;1.80;;;;;;;;;;521396;28;1961;-75
2022/02/25 01:26:16;;;;;;;6.47;1.70;;;;;;;;;;523681;28;872;-75
2022/02/25 01:26:32;;;;;;;7.80;1.80;;;;;;;;;;521987;28;1236;-75
2022/02/25 01:26:47;;;;;;;7.53;2.00;;;;;;;;;;521946;28;974;-74
2022/02/25 01:27:06;;;;;;;6.77;1.90;;;;;;;;;;519905;28;1284;-74
2022/02/25 01:27:21;;;;;;;6.75;1.88;;;;;;;;;;519574;28;1302;-74
2022/02/25 01:27:37;;;;;;;6.50;1.80;;;;;;;;;;519547;28;1180;-74
2022/02/25 01:27:52;;;;;;;6.22;1.70;;;;;;;;;;520586;28;1265;-74
2022/02/25 01:28:07;;;;;;;5.70;1.70;;;;;;;;;;521408;28;943;-74
2022/02/25 01:28:23;;;;;;;4.13;1.70;;;;;;;;;;523514;28;1192;-74
2022/02/25 01:28:38;;;;;;;4.18;1.63;;;;;;;;;;523859;28;1254;-74
2022/02/25 01:28:53;;;;;;;5.47;1.50;;;;;;;;;;522675;28;1238;-74
2022/02/25 01:29:09;;;;;;;5.53;1.70;;;;;;;;;;521107;28;1361;-74
2022/02/25 01:29:24;;;;;;;6.35;2.00;;;;;;;;;;521959;28;1313;-74
2022/02/25 01:29:40;;;;;;;7.77;2.10;;;;;;;;;;522133;28;954;-75
2022/02/25 01:29:56;;;;;;;6.20;1.80;;;;;;;;;;521820;28;1103;-74
2022/02/25 01:30:12;;;;;;;5.13;1.60;;;;;;;;;;520445;28;1497;-74
2022/02/25 01:30:27;;;;;;;4.75;1.85;;;;;;;;;;522396;28;922;-74
2022/02/25 01:30:42;;;;;;;4.57;1.90;;;;;;;;;;523358;28;1241;-74
2022/02/25 01:30:57;;;;;;;4.87;1.80;;;;;;;;;;524024;28;737;-74
2022/02/25 01:31:13;;;;;;;4.93;1.80;;;;;;;;;;522340;28;1296;-74
2022/02/25 01:31:28;;;;;;;6.43;1.90;;;;;;;;;;524164;28;820;-73
2022/02/25 01:31:45;;;;;;;6.57;1.77;;;;;;;;;;524173;28;658;-74
2022/02/25 01:32:00;;;;;;;5.60;1.65;;;;;;;;;;524200;28;725;-74
2022/02/25 01:32:16;;;;;;;5.95;1.80;;;;;;;;;;523758;28;947;-74
2022/02/25 01:32:32;;;;;;;6.07;1.80;;;;;;;;;;523913;28;836;-75
2022/02/25 01:32:47;;;;;;;6.68;1.90;;;;;;;;;;524231;28;824;-75
2022/02/25 01:33:02;;;;;;;5.77;1.97;;;;;;;;;;522417;28;1297;-75
2022/02/25 01:33:17;;;;;;;5.60;1.83;;;;;;;;;;521828;28;1143;-75
2022/02/25 01:33:33;;;;;;;6.50;1.70;;;;;;;;;;521976;28;951;-74
2022/02/25 01:33:49;;;;;;;5.60;1.57;;;;;;;;;;521845;28;1150;-76
2022/02/25 01:34:04;;;;;;;5.20;1.60;;;;;;;;;;521001;28;1265;-75
2022/02/25 01:34:19;;;;;;;6.27;1.70;;;;;;;;;;521449;28;900;-75
2022/02/25 01:34:35;;;;;;;6.20;1.77;;;;;;;;;;521764;28;796;-75
2022/02/25 01:34:50;;;;;;;6.30;1.87;;;;;;;;;;522009;28;816;-75
2022/02/25 01:35:06;;;;;;;6.45;1.70;;;;;;;;;;521668;28;1501;-75
2022/02/25 01:35:21;;;;;;;5.70;1.70;;;;;;;;;;524949;28;780;-75
2022/02/25 01:35:38;;;;;;;5.70;1.80;;;;;;;;;;523474;28;1191;-75
2022/02/25 01:35:53;;;;;;;5.78;1.90;;;;;;;;;;523747;28;751;-74
2022/02/25 01:36:09;;;;;;;5.32;1.80;;;;;;;;;;524641;28;862;-74
2022/02/25 01:36:24;;;;;;;5.53;1.70;;;;;;;;;;525696;28;760;-74
2022/02/25 01:36:39;;;;;;;5.07;1.60;;;;;;;;;;523838;28;1265;-74
2022/02/25 01:36:54;;;;;;;5.07;1.70;;;;;;;;;;524597;28;910;-74